sensor_id;sensor_type;location;lat;lon;timestamp;temperature;humidity
11142;DHT22;5625;50.122;19.864;2023-01-15T00:01:04;2.70;99.90
11142;DHT22;5625;50.122;19.864;2023-01-15T00:03:32;2.70;99.90
11142;DHT22;5625;50.122;19.864;2023-01-15T00:06:01;2.70;99.90
11142;DHT22;5625;50.122;19.864;2023-01-15T00:08:31;2.70;99.90
11142;DHT22;5625;50.122;19.864;2023-01-15T00:11:02;2.70;99.90
11142;DHT22;5625;50.122;19.864;2023-01-15T00:13:30;2.60;99.90
11142;DHT22;5625;50.122;19.864;2023-01-15T00:16:02;2.70;99.90
11142;DHT22;5625;50.122;19.864;2023-01-15T00:18:30;2.70;99.90
11142;DHT22;5625;50.122;19.864;2023-01-15T00:20:59;2.60;99.90
11142;DHT22;5625;50.122;19.864;2023-01-15T00:23:27;2.60;99.90
11142;DHT22;5625;50.122;19.864;2023-01-15T00:26:15;2.60;99.90
11142;DHT22;5625;50.122;19.864;2023-01-15T00:29:01;2.70;99.90
11142;DHT22;5625;50.122;19.864;2023-01-15T00:31:29;2.70;99.90
11142;DHT22;5625;50.122;19.864;2023-01-15T00:33:57;2.70;99.90
11142;DHT22;5625;50.122;19.864;2023-01-15T00:36:29;2.70;99.90
11142;DHT22;5625;50.122;19.864;2023-01-15T00:38:57;2.70;99.90
11142;DHT22;5625;50.122;19.864;2023-01-15T00:41:26;2.70;99.90
11142;DHT22;5625;50.122;19.864;2023-01-15T00:43:54;2.70;99.90
11142;DHT22;5625;50.122;19.864;2023-01-15T00:46:22;2.70;99.90
11142;DHT22;5625;50.122;19.864;2023-01-15T00:48:50;2.70;99.90
11142;DHT22;5625;50.122;19.864;2023-01-15T00:51:18;2.80;99.90
11142;DHT22;5625;50.122;19.864;2023-01-15T00:53:46;2.80;99.90
11142;DHT22;5625;50.122;19.864;2023-01-15T00:56:14;2.80;99.90
11142;DHT22;5625;50.122;19.864;2023-01-15T00:58:44;2.90;99.90
11142;DHT22;5625;50.122;19.864;2023-01-15T01:01:13;2.90;99.90
11142;DHT22;5625;50.122;19.864;2023-01-15T01:03:42;2.90;99.90
11142;DHT22;5625;50.122;19.864;2023-01-15T01:06:16;2.90;99.90
11142;DHT22;5625;50.122;19.864;2023-01-15T01:08:44;2.90;99.90
11142;DHT22;5625;50.122;19.864;2023-01-15T01:11:13;2.90;99.90
11142;DHT22;5625;50.122;19.864;2023-01-15T01:13:42;2.90;99.90
11142;DHT22;5625;50.122;19.864;2023-01-15T01:16:33;2.90;99.90
11142;DHT22;5625;50.122;19.864;2023-01-15T01:19:05;2.90;99.90
11142;DHT22;5625;50.122;19.864;2023-01-15T01:21:33;2.90;99.90
11142;DHT22;5625;50.122;19.864;2023-01-15T01:24:01;2.90;99.90
11142;DHT22;5625;50.122;19.864;2023-01-15T01:26:29;3.00;99.90
11142;DHT22;5625;50.122;19.864;2023-01-15T01:28:58;2.90;99.90
11142;DHT22;5625;50.122;19.864;2023-01-15T01:31:26;2.90;99.90
11142;DHT22;5625;50.122;19.864;2023-01-15T01:33:57;2.90;99.90
11142;DHT22;5625;50.122;19.864;2023-01-15T01:36:26;3.00;99.90
11142;DHT22;5625;50.122;19.864;2023-01-15T01:38:55;3.00;99.90
11142;DHT22;5625;50.122;19.864;2023-01-15T01:41:23;3.00;99.90
11142;DHT22;5625;50.122;19.864;2023-01-15T01:43:55;3.00;99.90
11142;DHT22;5625;50.122;19.864;2023-01-15T01:46:24;3.00;99.90
11142;DHT22;5625;50.122;19.864;2023-01-15T01:48:56;3.00;99.90
11142;DHT22;5625;50.122;19.864;2023-01-15T01:51:28;3.00;99.90
11142;DHT22;5625;50.122;19.864;2023-01-15T01:54:01;3.00;99.90
11142;DHT22;5625;50.122;19.864;2023-01-15T01:56:33;3.00;99.90
11142;DHT22;5625;50.122;19.864;2023-01-15T01:59:02;3.00;99.90
11142;DHT22;5625;50.122;19.864;2023-01-15T02:01:31;3.00;99.90
11142;DHT22;5625;50.122;19.864;2023-01-15T02:04:05;3.00;99.90
11142;DHT22;5625;50.122;19.864;2023-01-15T02:06:35;3.00;99.90
11142;DHT22;5625;50.122;19.864;2023-01-15T02:09:04;3.10;99.90
11142;DHT22;5625;50.122;19.864;2023-01-15T02:11:33;3.00;99.90
11142;DHT22;5625;50.122;19.864;2023-01-15T02:14:05;3.00;99.90
11142;DHT22;5625;50.122;19.864;2023-01-15T02:16:40;3.00;99.90
11142;DHT22;5625;50.122;19.864;2023-01-15T02:19:18;3.00;99.90
11142;DHT22;5625;50.122;19.864;2023-01-15T02:21:55;3.00;99.90
11142;DHT22;5625;50.122;19.864;2023-01-15T02:24:33;3.10;99.90
11142;DHT22;5625;50.122;19.864;2023-01-15T02:27:09;3.00;99.90
11142;DHT22;5625;50.122;19.864;2023-01-15T02:29:44;3.10;99.90
11142;DHT22;5625;50.122;19.864;2023-01-15T02:32:21;3.00;99.90
11142;DHT22;5625;50.122;19.864;2023-01-15T02:34:53;3.00;99.90
11142;DHT22;5625;50.122;19.864;2023-01-15T02:37:26;3.10;99.90
11142;DHT22;5625;50.122;19.864;2023-01-15T02:39:56;3.00;99.90
11142;DHT22;5625;50.122;19.864;2023-01-15T02:42:28;3.00;99.90
11142;DHT22;5625;50.122;19.864;2023-01-15T02:44:59;3.10;99.90
11142;DHT22;5625;50.122;19.864;2023-01-15T02:47:33;3.10;99.90
11142;DHT22;5625;50.122;19.864;2023-01-15T02:50:05;3.10;99.90
11142;DHT22;5625;50.122;19.864;2023-01-15T02:52:37;3.10;97.70
11142;DHT22;5625;50.122;19.864;2023-01-15T02:55:09;3.20;95.20
11142;DHT22;5625;50.122;19.864;2023-01-15T02:57:42;3.20;91.60
11142;DHT22;5625;50.122;19.864;2023-01-15T03:00:15;3.30;90.10
11142;DHT22;5625;50.122;19.864;2023-01-15T03:02:48;3.30;88.30
11142;DHT22;5625;50.122;19.864;2023-01-15T03:05:21;3.30;85.40
11142;DHT22;5625;50.122;19.864;2023-01-15T03:07:52;3.30;82.20
11142;DHT22;5625;50.122;19.864;2023-01-15T03:10:26;3.40;80.90
11142;DHT22;5625;50.122;19.864;2023-01-15T03:13:00;3.50;75.70
11142;DHT22;5625;50.122;19.864;2023-01-15T03:15:37;3.50;69.10
11142;DHT22;5625;50.122;19.864;2023-01-15T03:18:27;3.60;64.60
11142;DHT22;5625;50.122;19.864;2023-01-15T03:20:59;3.70;63.40
11142;DHT22;5625;50.122;19.864;2023-01-15T03:23:33;3.70;66.80
11142;DHT22;5625;50.122;19.864;2023-01-15T03:26:04;3.70;65.10
11142;DHT22;5625;50.122;19.864;2023-01-15T03:28:35;3.70;65.70
11142;DHT22;5625;50.122;19.864;2023-01-15T03:31:05;3.70;68.00
11142;DHT22;5625;50.122;19.864;2023-01-15T03:33:33;3.70;67.30
11142;DHT22;5625;50.122;19.864;2023-01-15T03:36:02;3.70;70.00
11142;DHT22;5625;50.122;19.864;2023-01-15T03:38:31;3.70;70.10
11142;DHT22;5625;50.122;19.864;2023-01-15T03:41:13;3.80;65.60
11142;DHT22;5625;50.122;19.864;2023-01-15T03:43:51;3.80;65.30
11142;DHT22;5625;50.122;19.864;2023-01-15T03:49:20;3.90;60.10
11142;DHT22;5625;50.122;19.864;2023-01-15T03:51:58;4.00;57.30
11142;DHT22;5625;50.122;19.864;2023-01-15T03:54:34;4.10;54.30
11142;DHT22;5625;50.122;19.864;2023-01-15T03:57:10;4.10;52.70
11142;DHT22;5625;50.122;19.864;2023-01-15T03:59:47;4.20;41.60
11142;DHT22;5625;50.122;19.864;2023-01-15T04:02:18;4.30;35.90
11142;DHT22;5625;50.122;19.864;2023-01-15T04:04:48;4.40;31.30
11142;DHT22;5625;50.122;19.864;2023-01-15T04:07:17;4.40;28.10
11142;DHT22;5625;50.122;19.864;2023-01-15T04:09:46;4.50;26.50
11142;DHT22;5625;50.122;19.864;2023-01-15T04:12:14;4.60;23.60
11142;DHT22;5625;50.122;19.864;2023-01-15T04:14:44;4.60;26.00
11142;DHT22;5625;50.122;19.864;2023-01-15T04:17:12;4.70;24.20
11142;DHT22;5625;50.122;19.864;2023-01-15T04:19:40;4.80;14.10
11142;DHT22;5625;50.122;19.864;2023-01-15T04:22:10;4.80;6.50
11142;DHT22;5625;50.122;19.864;2023-01-15T04:24:38;4.90;4.50
11142;DHT22;5625;50.122;19.864;2023-01-15T04:27:06;5.00;5.30
11142;DHT22;5625;50.122;19.864;2023-01-15T04:29:34;5.00;6.80
11142;DHT22;5625;50.122;19.864;2023-01-15T04:32:04;5.10;7.40
11142;DHT22;5625;50.122;19.864;2023-01-15T04:34:32;5.10;10.40
11142;DHT22;5625;50.122;19.864;2023-01-15T04:37:01;5.20;10.40
11142;DHT22;5625;50.122;19.864;2023-01-15T04:39:29;5.20;13.80
11142;DHT22;5625;50.122;19.864;2023-01-15T04:41:57;5.20;14.80
11142;DHT22;5625;50.122;19.864;2023-01-15T04:44:45;5.20;14.00
11142;DHT22;5625;50.122;19.864;2023-01-15T04:47:15;5.20;12.10
11142;DHT22;5625;50.122;19.864;2023-01-15T04:49:43;5.30;10.60
11142;DHT22;5625;50.122;19.864;2023-01-15T04:52:11;5.20;9.60
11142;DHT22;5625;50.122;19.864;2023-01-15T04:54:39;5.30;9.90
11142;DHT22;5625;50.122;19.864;2023-01-15T04:57:07;5.30;12.20
11142;DHT22;5625;50.122;19.864;2023-01-15T04:59:35;5.40;5.60
11142;DHT22;5625;50.122;19.864;2023-01-15T05:02:03;5.40;3.30
11142;DHT22;5625;50.122;19.864;2023-01-15T05:04:34;5.40;5.70
11142;DHT22;5625;50.122;19.864;2023-01-15T05:07:03;5.40;2.90
11142;DHT22;5625;50.122;19.864;2023-01-15T05:09:31;5.40;1.00
11142;DHT22;5625;50.122;19.864;2023-01-15T05:12:00;5.40;2.30
11142;DHT22;5625;50.122;19.864;2023-01-15T05:14:28;5.40;5.70
11142;DHT22;5625;50.122;19.864;2023-01-15T05:16:56;5.40;12.20
11142;DHT22;5625;50.122;19.864;2023-01-15T05:19:24;5.30;17.40
11142;DHT22;5625;50.122;19.864;2023-01-15T05:21:53;5.30;20.60
11142;DHT22;5625;50.122;19.864;2023-01-15T05:24:21;5.30;14.10
11142;DHT22;5625;50.122;19.864;2023-01-15T05:26:49;5.30;14.30
11142;DHT22;5625;50.122;19.864;2023-01-15T05:29:17;5.30;7.10
11142;DHT22;5625;50.122;19.864;2023-01-15T05:31:46;5.30;8.60
11142;DHT22;5625;50.122;19.864;2023-01-15T05:34:14;5.30;6.40
11142;DHT22;5625;50.122;19.864;2023-01-15T05:36:42;5.30;9.80
11142;DHT22;5625;50.122;19.864;2023-01-15T05:39:11;5.20;14.70
11142;DHT22;5625;50.122;19.864;2023-01-15T05:41:42;5.20;14.40
11142;DHT22;5625;50.122;19.864;2023-01-15T05:44:19;5.20;16.90
11142;DHT22;5625;50.122;19.864;2023-01-15T05:46:49;5.20;9.30
11142;DHT22;5625;50.122;19.864;2023-01-15T05:49:19;5.20;15.20
11142;DHT22;5625;50.122;19.864;2023-01-15T05:51:47;5.20;13.10
11142;DHT22;5625;50.122;19.864;2023-01-15T05:54:20;5.10;14.80
11142;DHT22;5625;50.122;19.864;2023-01-15T05:56:48;5.10;20.30
11142;DHT22;5625;50.122;19.864;2023-01-15T05:59:18;5.10;25.30
11142;DHT22;5625;50.122;19.864;2023-01-15T06:01:47;5.10;26.10
11142;DHT22;5625;50.122;19.864;2023-01-15T06:04:15;5.00;27.40
11142;DHT22;5625;50.122;19.864;2023-01-15T06:06:47;5.00;32.70
11142;DHT22;5625;50.122;19.864;2023-01-15T06:09:19;5.00;34.20
11142;DHT22;5625;50.122;19.864;2023-01-15T06:11:49;5.00;48.00
11142;DHT22;5625;50.122;19.864;2023-01-15T06:14:17;5.00;59.60
11142;DHT22;5625;50.122;19.864;2023-01-15T06:16:45;4.90;57.70
11142;DHT22;5625;50.122;19.864;2023-01-15T06:19:14;4.90;63.70
11142;DHT22;5625;50.122;19.864;2023-01-15T06:21:42;4.90;68.90
11142;DHT22;5625;50.122;19.864;2023-01-15T06:24:10;4.90;57.20
11142;DHT22;5625;50.122;19.864;2023-01-15T06:26:39;4.90;54.10
11142;DHT22;5625;50.122;19.864;2023-01-15T06:29:07;4.90;57.30
11142;DHT22;5625;50.122;19.864;2023-01-15T06:31:35;5.00;52.80
11142;DHT22;5625;50.122;19.864;2023-01-15T06:34:03;4.90;55.50
11142;DHT22;5625;50.122;19.864;2023-01-15T06:36:34;5.00;52.50
11142;DHT22;5625;50.122;19.864;2023-01-15T06:39:03;4.90;55.60
11142;DHT22;5625;50.122;19.864;2023-01-15T06:41:31;5.00;55.90
11142;DHT22;5625;50.122;19.864;2023-01-15T06:44:18;5.00;58.40
11142;DHT22;5625;50.122;19.864;2023-01-15T06:47:12;5.00;56.30
11142;DHT22;5625;50.122;19.864;2023-01-15T06:49:52;5.00;57.60
11142;DHT22;5625;50.122;19.864;2023-01-15T06:52:21;5.00;55.30
11142;DHT22;5625;50.122;19.864;2023-01-15T06:54:49;5.00;53.30
11142;DHT22;5625;50.122;19.864;2023-01-15T06:57:17;5.00;54.90
11142;DHT22;5625;50.122;19.864;2023-01-15T06:59:47;5.00;58.10
11142;DHT22;5625;50.122;19.864;2023-01-15T07:02:16;5.00;59.20
11142;DHT22;5625;50.122;19.864;2023-01-15T07:04:44;5.00;57.90
11142;DHT22;5625;50.122;19.864;2023-01-15T07:07:13;5.00;58.80
11142;DHT22;5625;50.122;19.864;2023-01-15T07:09:41;5.00;57.80
11142;DHT22;5625;50.122;19.864;2023-01-15T07:12:10;5.00;62.60
11142;DHT22;5625;50.122;19.864;2023-01-15T07:14:38;5.00;66.60
11142;DHT22;5625;50.122;19.864;2023-01-15T07:17:08;5.00;61.40
11142;DHT22;5625;50.122;19.864;2023-01-15T07:19:36;5.00;62.20
11142;DHT22;5625;50.122;19.864;2023-01-15T07:22:05;5.10;63.50
11142;DHT22;5625;50.122;19.864;2023-01-15T07:24:33;5.10;68.30
11142;DHT22;5625;50.122;19.864;2023-01-15T07:27:01;5.10;62.60
11142;DHT22;5625;50.122;19.864;2023-01-15T07:29:29;5.10;64.30
11142;DHT22;5625;50.122;19.864;2023-01-15T07:31:57;5.10;67.20
11142;DHT22;5625;50.122;19.864;2023-01-15T07:34:29;5.10;70.00
11142;DHT22;5625;50.122;19.864;2023-01-15T07:36:57;5.20;74.80
11142;DHT22;5625;50.122;19.864;2023-01-15T07:39:28;5.20;77.10
11142;DHT22;5625;50.122;19.864;2023-01-15T07:41:57;5.10;78.00
11142;DHT22;5625;50.122;19.864;2023-01-15T07:44:42;5.20;78.90
11142;DHT22;5625;50.122;19.864;2023-01-15T07:47:28;5.20;80.90
11142;DHT22;5625;50.122;19.864;2023-01-15T07:50:16;5.20;73.90
11142;DHT22;5625;50.122;19.864;2023-01-15T07:52:44;5.20;71.90
11142;DHT22;5625;50.122;19.864;2023-01-15T07:55:13;5.30;59.70
11142;DHT22;5625;50.122;19.864;2023-01-15T07:57:41;5.30;60.40
11142;DHT22;5625;50.122;19.864;2023-01-15T08:00:12;5.40;55.40
11142;DHT22;5625;50.122;19.864;2023-01-15T08:02:41;5.40;58.80
11142;DHT22;5625;50.122;19.864;2023-01-15T08:05:10;5.50;63.20
11142;DHT22;5625;50.122;19.864;2023-01-15T08:07:40;5.50;64.00
11142;DHT22;5625;50.122;19.864;2023-01-15T08:10:10;5.60;55.60
11142;DHT22;5625;50.122;19.864;2023-01-15T08:12:41;5.70;49.90
11142;DHT22;5625;50.122;19.864;2023-01-15T08:15:28;5.80;49.00
11142;DHT22;5625;50.122;19.864;2023-01-15T08:17:58;5.90;43.80
11142;DHT22;5625;50.122;19.864;2023-01-15T08:20:26;6.00;42.90
11142;DHT22;5625;50.122;19.864;2023-01-15T08:22:56;6.10;47.90
11142;DHT22;5625;50.122;19.864;2023-01-15T08:25:24;6.20;49.00
11142;DHT22;5625;50.122;19.864;2023-01-15T08:27:53;6.20;50.00
11142;DHT22;5625;50.122;19.864;2023-01-15T08:30:24;6.20;53.50
11142;DHT22;5625;50.122;19.864;2023-01-15T08:32:57;6.30;54.50
11142;DHT22;5625;50.122;19.864;2023-01-15T08:35:25;6.30;57.20
11142;DHT22;5625;50.122;19.864;2023-01-15T08:37:53;6.30;50.60
11142;DHT22;5625;50.122;19.864;2023-01-15T08:40:22;6.30;53.10
11142;DHT22;5625;50.122;19.864;2023-01-15T08:42:51;6.30;57.10
11142;DHT22;5625;50.122;19.864;2023-01-15T08:45:21;6.30;53.10
11142;DHT22;5625;50.122;19.864;2023-01-15T08:47:49;6.40;51.10
11142;DHT22;5625;50.122;19.864;2023-01-15T08:50:21;6.40;55.50
11142;DHT22;5625;50.122;19.864;2023-01-15T08:52:49;6.40;49.50
11142;DHT22;5625;50.122;19.864;2023-01-15T08:55:17;6.40;54.10
11142;DHT22;5625;50.122;19.864;2023-01-15T08:57:46;6.50;57.50
11142;DHT22;5625;50.122;19.864;2023-01-15T09:00:14;6.50;62.60
11142;DHT22;5625;50.122;19.864;2023-01-15T09:02:43;6.50;46.30
11142;DHT22;5625;50.122;19.864;2023-01-15T09:05:15;6.50;20.10
11142;DHT22;5625;50.122;19.864;2023-01-15T09:07:43;6.60;12.70
11142;DHT22;5625;50.122;19.864;2023-01-15T09:10:11;6.60;14.50
11142;DHT22;5625;50.122;19.864;2023-01-15T09:12:39;6.60;11.70
11142;DHT22;5625;50.122;19.864;2023-01-15T09:15:09;6.60;6.20
11142;DHT22;5625;50.122;19.864;2023-01-15T09:17:37;6.60;5.10
11142;DHT22;5625;50.122;19.864;2023-01-15T09:20:09;6.70;5.20
11142;DHT22;5625;50.122;19.864;2023-01-15T09:22:38;6.70;10.10
11142;DHT22;5625;50.122;19.864;2023-01-15T09:25:07;6.70;11.10
11142;DHT22;5625;50.122;19.864;2023-01-15T09:27:35;6.70;9.30
11142;DHT22;5625;50.122;19.864;2023-01-15T09:30:04;6.70;7.30
11142;DHT22;5625;50.122;19.864;2023-01-15T09:32:34;6.70;1.00
11142;DHT22;5625;50.122;19.864;2023-01-15T09:35:02;6.80;1.00
11142;DHT22;5625;50.122;19.864;2023-01-15T09:37:30;6.80;1.00
11142;DHT22;5625;50.122;19.864;2023-01-15T09:39:58;6.90;1.00
11142;DHT22;5625;50.122;19.864;2023-01-15T09:42:39;7.00;1.00
11142;DHT22;5625;50.122;19.864;2023-01-15T09:45:17;7.00;1.00
11142;DHT22;5625;50.122;19.864;2023-01-15T09:48:03;7.00;1.00
11142;DHT22;5625;50.122;19.864;2023-01-15T09:50:44;7.00;1.00
11142;DHT22;5625;50.122;19.864;2023-01-15T09:53:42;7.00;1.00
11142;DHT22;5625;50.122;19.864;2023-01-15T09:56:19;7.00;1.00
11142;DHT22;5625;50.122;19.864;2023-01-15T09:58:49;7.10;1.00
11142;DHT22;5625;50.122;19.864;2023-01-15T10:01:19;7.20;1.00
11142;DHT22;5625;50.122;19.864;2023-01-15T10:03:56;7.20;1.00
11142;DHT22;5625;50.122;19.864;2023-01-15T10:06:27;7.30;1.00
11142;DHT22;5625;50.122;19.864;2023-01-15T10:09:01;7.30;1.00
11142;DHT22;5625;50.122;19.864;2023-01-15T10:11:36;7.30;1.00
11142;DHT22;5625;50.122;19.864;2023-01-15T10:14:31;7.40;1.00
11142;DHT22;5625;50.122;19.864;2023-01-15T10:17:19;7.40;1.00
11142;DHT22;5625;50.122;19.864;2023-01-15T10:19:50;7.40;1.00
11142;DHT22;5625;50.122;19.864;2023-01-15T10:22:31;7.40;1.00
11142;DHT22;5625;50.122;19.864;2023-01-15T10:25:08;7.40;1.00
11142;DHT22;5625;50.122;19.864;2023-01-15T10:27:45;7.50;1.00
11142;DHT22;5625;50.122;19.864;2023-01-15T10:30:15;7.50;1.00
11142;DHT22;5625;50.122;19.864;2023-01-15T10:32:45;7.60;1.00
11142;DHT22;5625;50.122;19.864;2023-01-15T10:35:37;7.70;1.00
11142;DHT22;5625;50.122;19.864;2023-01-15T10:38:13;7.80;1.00
11142;DHT22;5625;50.122;19.864;2023-01-15T10:40:58;7.90;1.00
11142;DHT22;5625;50.122;19.864;2023-01-15T10:43:39;8.00;99.90
11142;DHT22;5625;50.122;19.864;2023-01-15T10:46:12;8.00;99.90
11142;DHT22;5625;50.122;19.864;2023-01-15T10:48:44;8.10;99.90
11142;DHT22;5625;50.122;19.864;2023-01-15T10:51:16;8.10;99.90
11142;DHT22;5625;50.122;19.864;2023-01-15T10:53:48;8.10;99.90
11142;DHT22;5625;50.122;19.864;2023-01-15T10:56:26;8.20;99.90
11142;DHT22;5625;50.122;19.864;2023-01-15T10:58:59;8.20;99.90
11142;DHT22;5625;50.122;19.864;2023-01-15T11:01:31;8.30;99.90
11142;DHT22;5625;50.122;19.864;2023-01-15T11:04:02;8.30;99.90
11142;DHT22;5625;50.122;19.864;2023-01-15T11:06:32;8.30;99.90
11142;DHT22;5625;50.122;19.864;2023-01-15T11:09:00;8.40;99.90
11142;DHT22;5625;50.122;19.864;2023-01-15T11:11:39;8.40;99.90
11142;DHT22;5625;50.122;19.864;2023-01-15T11:14:35;8.40;91.30
11142;DHT22;5625;50.122;19.864;2023-01-15T11:17:21;8.50;46.20
11142;DHT22;5625;50.122;19.864;2023-01-15T11:20:16;8.50;54.80
11142;DHT22;5625;50.122;19.864;2023-01-15T11:22:48;8.40;99.90
11142;DHT22;5625;50.122;19.864;2023-01-15T11:25:24;8.40;99.90
11142;DHT22;5625;50.122;19.864;2023-01-15T11:27:54;8.40;99.90
11142;DHT22;5625;50.122;19.864;2023-01-15T11:30:28;8.30;99.90
11142;DHT22;5625;50.122;19.864;2023-01-15T11:32:58;8.30;99.90
11142;DHT22;5625;50.122;19.864;2023-01-15T11:35:32;8.30;99.90
11142;DHT22;5625;50.122;19.864;2023-01-15T11:38:03;8.30;99.90
11142;DHT22;5625;50.122;19.864;2023-01-15T11:40:32;8.20;1.00
11142;DHT22;5625;50.122;19.864;2023-01-15T11:43:00;8.20;1.00
11142;DHT22;5625;50.122;19.864;2023-01-15T11:45:47;8.20;1.00
11142;DHT22;5625;50.122;19.864;2023-01-15T11:48:41;8.20;1.00
11142;DHT22;5625;50.122;19.864;2023-01-15T11:51:27;8.10;1.00
11142;DHT22;5625;50.122;19.864;2023-01-15T11:54:01;8.10;1.00
11142;DHT22;5625;50.122;19.864;2023-01-15T11:56:31;8.10;1.00
11142;DHT22;5625;50.122;19.864;2023-01-15T11:59:01;8.00;1.00
11142;DHT22;5625;50.122;19.864;2023-01-15T12:01:32;8.00;1.00
11142;DHT22;5625;50.122;19.864;2023-01-15T12:04:23;7.90;1.00
11142;DHT22;5625;50.122;19.864;2023-01-15T12:06:52;7.90;1.00
11142;DHT22;5625;50.122;19.864;2023-01-15T12:09:30;7.90;1.00
11142;DHT22;5625;50.122;19.864;2023-01-15T12:12:12;7.80;1.00
11142;DHT22;5625;50.122;19.864;2023-01-15T12:14:56;7.80;1.00
11142;DHT22;5625;50.122;19.864;2023-01-15T12:17:45;7.80;1.00
11142;DHT22;5625;50.122;19.864;2023-01-15T12:20:21;7.80;1.00
11142;DHT22;5625;50.122;19.864;2023-01-15T12:23:02;7.70;1.00
11142;DHT22;5625;50.122;19.864;2023-01-15T12:25:42;7.70;1.00
11142;DHT22;5625;50.122;19.864;2023-01-15T12:28:17;7.60;1.00
11142;DHT22;5625;50.122;19.864;2023-01-15T12:30:57;7.60;1.00
11142;DHT22;5625;50.122;19.864;2023-01-15T12:33:36;7.60;7.00
11142;DHT22;5625;50.122;19.864;2023-01-15T12:36:11;7.60;16.30
11142;DHT22;5625;50.122;19.864;2023-01-15T12:38:48;7.50;19.10
11142;DHT22;5625;50.122;19.864;2023-01-15T12:41:23;7.50;28.30
11142;DHT22;5625;50.122;19.864;2023-01-15T12:44:14;7.50;30.70
11142;DHT22;5625;50.122;19.864;2023-01-15T12:47:06;7.50;36.30
11142;DHT22;5625;50.122;19.864;2023-01-15T12:49:42;7.50;37.10
11142;DHT22;5625;50.122;19.864;2023-01-15T12:52:16;7.50;35.80
11142;DHT22;5625;50.122;19.864;2023-01-15T12:54:51;7.50;32.70
11142;DHT22;5625;50.122;19.864;2023-01-15T12:57:33;7.50;32.20
11142;DHT22;5625;50.122;19.864;2023-01-15T13:00:04;7.50;38.40
11142;DHT22;5625;50.122;19.864;2023-01-15T13:02:45;7.50;39.10
11142;DHT22;5625;50.122;19.864;2023-01-15T13:05:19;7.50;29.70
11142;DHT22;5625;50.122;19.864;2023-01-15T13:07:53;7.50;43.60
11142;DHT22;5625;50.122;19.864;2023-01-15T13:10:25;7.50;44.00
11142;DHT22;5625;50.122;19.864;2023-01-15T13:13:00;7.50;52.20
11142;DHT22;5625;50.122;19.864;2023-01-15T13:15:34;7.50;41.80
11142;DHT22;5625;50.122;19.864;2023-01-15T13:18:15;7.50;35.90
11142;DHT22;5625;50.122;19.864;2023-01-15T13:20:46;7.50;41.70
11142;DHT22;5625;50.122;19.864;2023-01-15T13:23:29;7.50;43.70
11142;DHT22;5625;50.122;19.864;2023-01-15T13:26:10;7.50;44.20
11142;DHT22;5625;50.122;19.864;2023-01-15T13:28:53;7.50;45.30
11142;DHT22;5625;50.122;19.864;2023-01-15T13:31:47;7.50;41.60
11142;DHT22;5625;50.122;19.864;2023-01-15T13:34:25;7.50;47.10
11142;DHT22;5625;50.122;19.864;2023-01-15T13:37:01;7.50;55.20
11142;DHT22;5625;50.122;19.864;2023-01-15T13:39:35;7.50;55.60
11142;DHT22;5625;50.122;19.864;2023-01-15T13:42:04;7.40;62.90
11142;DHT22;5625;50.122;19.864;2023-01-15T13:44:53;7.40;62.80
11142;DHT22;5625;50.122;19.864;2023-01-15T13:47:24;7.40;64.30
11142;DHT22;5625;50.122;19.864;2023-01-15T13:49:55;7.30;69.30
11142;DHT22;5625;50.122;19.864;2023-01-15T13:52:27;7.30;75.90
11142;DHT22;5625;50.122;19.864;2023-01-15T13:54:59;7.30;79.80
11142;DHT22;5625;50.122;19.864;2023-01-15T13:57:32;7.20;83.70
11142;DHT22;5625;50.122;19.864;2023-01-15T14:00:04;7.30;83.60
11142;DHT22;5625;50.122;19.864;2023-01-15T14:02:35;7.20;85.80
11142;DHT22;5625;50.122;19.864;2023-01-15T14:05:28;7.20;88.30
11142;DHT22;5625;50.122;19.864;2023-01-15T14:07:56;7.20;90.10
11142;DHT22;5625;50.122;19.864;2023-01-15T14:10:33;7.20;90.60
11142;DHT22;5625;50.122;19.864;2023-01-15T14:13:22;7.20;91.30
11142;DHT22;5625;50.122;19.864;2023-01-15T14:16:05;7.20;91.70
11142;DHT22;5625;50.122;19.864;2023-01-15T14:21:43;7.10;91.70
11142;DHT22;5625;50.122;19.864;2023-01-15T14:27:16;7.10;94.60
11142;DHT22;5625;50.122;19.864;2023-01-15T14:30:00;7.10;94.80
11142;DHT22;5625;50.122;19.864;2023-01-15T14:32:41;7.10;95.90
11142;DHT22;5625;50.122;19.864;2023-01-15T14:35:18;7.10;96.60
11142;DHT22;5625;50.122;19.864;2023-01-15T14:37:49;7.10;95.80
11142;DHT22;5625;50.122;19.864;2023-01-15T14:40:21;7.00;95.10
11142;DHT22;5625;50.122;19.864;2023-01-15T14:42:51;7.10;96.90
11142;DHT22;5625;50.122;19.864;2023-01-15T14:45:32;7.00;97.50
11142;DHT22;5625;50.122;19.864;2023-01-15T14:48:04;7.00;97.50
11142;DHT22;5625;50.122;19.864;2023-01-15T14:50:35;7.00;96.90
11142;DHT22;5625;50.122;19.864;2023-01-15T14:56:12;7.00;97.80
11142;DHT22;5625;50.122;19.864;2023-01-15T14:58:48;7.00;97.50
11142;DHT22;5625;50.122;19.864;2023-01-15T15:01:26;6.90;98.60
11142;DHT22;5625;50.122;19.864;2023-01-15T15:03:59;6.90;98.70
11142;DHT22;5625;50.122;19.864;2023-01-15T15:06:28;6.90;98.70
11142;DHT22;5625;50.122;19.864;2023-01-15T15:09:01;7.00;91.30
11142;DHT22;5625;50.122;19.864;2023-01-15T15:11:34;7.00;87.30
11142;DHT22;5625;50.122;19.864;2023-01-15T15:14:25;7.00;82.10
11142;DHT22;5625;50.122;19.864;2023-01-15T15:16:59;7.10;83.50
11142;DHT22;5625;50.122;19.864;2023-01-15T15:19:33;7.10;75.70
11142;DHT22;5625;50.122;19.864;2023-01-15T15:22:04;7.10;76.00
11142;DHT22;5625;50.122;19.864;2023-01-15T15:24:35;7.20;71.60
11142;DHT22;5625;50.122;19.864;2023-01-15T15:27:14;7.20;75.60
11142;DHT22;5625;50.122;19.864;2023-01-15T15:29:44;7.20;76.40
11142;DHT22;5625;50.122;19.864;2023-01-15T15:32:17;7.20;71.80
11142;DHT22;5625;50.122;19.864;2023-01-15T15:34:49;7.20;70.20
11142;DHT22;5625;50.122;19.864;2023-01-15T15:37:21;7.20;65.50
11142;DHT22;5625;50.122;19.864;2023-01-15T15:39:52;7.20;62.80
11142;DHT22;5625;50.122;19.864;2023-01-15T15:42:29;7.30;61.70
11142;DHT22;5625;50.122;19.864;2023-01-15T15:45:28;7.30;66.00
11142;DHT22;5625;50.122;19.864;2023-01-15T15:48:18;7.20;70.80
11142;DHT22;5625;50.122;19.864;2023-01-15T15:51:32;7.20;71.30
11142;DHT22;5625;50.122;19.864;2023-01-15T15:54:09;7.30;59.30
11142;DHT22;5625;50.122;19.864;2023-01-15T15:56:41;7.30;63.10
11142;DHT22;5625;50.122;19.864;2023-01-15T15:59:17;7.30;70.70
11142;DHT22;5625;50.122;19.864;2023-01-15T16:01:45;7.30;70.90
11142;DHT22;5625;50.122;19.864;2023-01-15T16:04:16;7.30;73.60
11142;DHT22;5625;50.122;19.864;2023-01-15T16:06:47;7.30;77.10
11142;DHT22;5625;50.122;19.864;2023-01-15T16:09:20;7.30;75.60
11142;DHT22;5625;50.122;19.864;2023-01-15T16:11:50;7.30;78.30
11142;DHT22;5625;50.122;19.864;2023-01-15T16:14:19;7.20;80.40
11142;DHT22;5625;50.122;19.864;2023-01-15T16:16:49;7.20;85.00
11142;DHT22;5625;50.122;19.864;2023-01-15T16:19:21;7.20;88.20
11142;DHT22;5625;50.122;19.864;2023-01-15T16:21:52;7.20;89.70
11142;DHT22;5625;50.122;19.864;2023-01-15T16:24:25;7.20;90.20
11142;DHT22;5625;50.122;19.864;2023-01-15T16:26:59;7.20;90.80
11142;DHT22;5625;50.122;19.864;2023-01-15T16:29:31;7.20;91.40
11142;DHT22;5625;50.122;19.864;2023-01-15T16:32:01;7.20;92.30
11142;DHT22;5625;50.122;19.864;2023-01-15T16:34:36;7.20;94.00
11142;DHT22;5625;50.122;19.864;2023-01-15T16:37:20;7.20;96.00
11142;DHT22;5625;50.122;19.864;2023-01-15T16:39:50;7.20;97.70